createdAt,value
2022-12-20T00:01:39.748Z,25.01
2022-12-20T00:04:06.090Z,25.03
2022-12-20T00:06:32.410Z,25.03
2022-12-20T00:08:58.753Z,25.03
2022-12-20T00:11:25.154Z,24.98
2022-12-20T00:13:51.505Z,24.99
2022-12-20T00:16:17.941Z,24.97
2022-12-20T00:18:44.267Z,25.01
2022-12-20T00:21:10.655Z,24.99
2022-12-20T00:23:36.998Z,24.98
2022-12-20T00:26:03.394Z,24.99
2022-12-20T00:28:29.736Z,24.99
2022-12-20T00:30:56.123Z,24.97
2022-12-20T00:33:22.467Z,24.95
2022-12-20T00:35:48.865Z,24.97
2022-12-20T00:38:15.209Z,24.95
2022-12-20T00:40:41.598Z,24.94
2022-12-20T00:43:07.946Z,24.96
2022-12-20T00:45:34.335Z,24.94
2022-12-20T00:48:00.682Z,24.95
2022-12-20T00:50:27.072Z,24.94
2022-12-20T00:52:53.409Z,24.90
2022-12-20T00:55:19.807Z,24.94
2022-12-20T00:57:46.154Z,24.93
2022-12-20T01:00:12.552Z,24.92
2022-12-20T01:02:39.036Z,24.92
2022-12-20T01:05:05.326Z,24.92
2022-12-20T01:07:31.659Z,24.91
2022-12-20T01:09:58.053Z,24.90
2022-12-20T01:12:24.399Z,24.92
2022-12-20T01:14:50.785Z,24.92
2022-12-20T01:17:17.129Z,24.91
2022-12-20T01:19:43.515Z,24.89
2022-12-20T01:22:09.883Z,24.87
2022-12-20T01:24:36.272Z,24.88
2022-12-20T01:27:02.633Z,24.85
2022-12-20T01:29:29.009Z,24.84
2022-12-20T01:31:55.428Z,24.84
2022-12-20T01:34:21.750Z,24.87
2022-12-20T01:36:48.122Z,24.84
2022-12-20T01:39:14.511Z,24.78
2022-12-20T01:41:40.876Z,24.83
2022-12-20T01:44:07.234Z,24.85
2022-12-20T01:46:33.724Z,24.75
2022-12-20T01:48:59.969Z,24.83
2022-12-20T01:51:26.319Z,24.85
2022-12-20T01:53:52.732Z,24.86
2022-12-20T01:56:19.051Z,24.86
2022-12-20T01:58:45.449Z,24.87
2022-12-20T02:01:11.838Z,24.75
2022-12-20T02:03:38.242Z,24.75
2022-12-20T02:06:04.550Z,24.75
2022-12-20T02:08:30.972Z,24.76
2022-12-20T02:10:57.323Z,24.76
2022-12-20T02:13:23.736Z,24.79
2022-12-20T02:15:50.077Z,24.76
2022-12-20T02:18:16.461Z,24.77
2022-12-20T02:20:42.804Z,24.79
2022-12-20T02:23:09.186Z,24.75
2022-12-20T02:25:35.553Z,24.77
2022-12-20T02:28:01.922Z,24.78
2022-12-20T02:30:28.285Z,24.77
2022-12-20T02:32:54.666Z,24.79
2022-12-20T02:35:21.023Z,24.77
2022-12-20T02:37:47.407Z,24.78
2022-12-20T02:40:13.771Z,24.76
2022-12-20T02:42:40.178Z,24.78
2022-12-20T02:45:06.528Z,24.78
2022-12-20T02:47:32.913Z,24.79
2022-12-20T02:49:59.253Z,24.81
2022-12-20T02:52:25.651Z,24.77
2022-12-20T02:54:52.096Z,24.77
2022-12-20T02:57:18.500Z,24.78
2022-12-20T02:59:45.220Z,24.78
2022-12-20T03:02:11.804Z,24.79
2022-12-20T03:04:37.955Z,24.78
2022-12-20T03:07:04.388Z,24.79
2022-12-20T03:09:30.704Z,24.78
2022-12-20T03:11:57.088Z,24.80
2022-12-20T03:14:23.434Z,24.82
2022-12-20T03:16:49.866Z,24.12
2022-12-20T03:19:16.183Z,24.51
2022-12-20T03:21:42.562Z,24.68
2022-12-20T03:24:08.913Z,24.77
2022-12-20T03:26:35.308Z,24.79
2022-12-20T03:29:01.662Z,24.81
2022-12-20T03:31:28.142Z,24.81
2022-12-20T03:33:54.411Z,24.78
2022-12-20T03:36:20.798Z,24.78
2022-12-20T03:38:47.142Z,24.80
2022-12-20T03:41:13.546Z,24.78
2022-12-20T03:43:39.895Z,24.78
2022-12-20T03:46:06.383Z,24.81
2022-12-20T03:48:32.675Z,24.77
2022-12-20T03:50:59.060Z,24.80
2022-12-20T03:53:25.552Z,24.77
2022-12-20T03:55:51.937Z,24.78
2022-12-20T03:58:18.280Z,24.77
2022-12-20T04:00:44.681Z,24.78
2022-12-20T04:03:11.118Z,24.79
2022-12-20T04:05:37.420Z,24.75
2022-12-20T04:08:03.768Z,24.77
2022-12-20T04:10:30.155Z,24.81
2022-12-20T04:12:56.498Z,24.77
2022-12-20T04:15:22.883Z,24.78
2022-12-20T04:17:49.235Z,24.78
2022-12-20T04:20:15.617Z,24.76
2022-12-20T04:22:41.962Z,24.77
2022-12-20T04:25:08.362Z,24.77
2022-12-20T04:27:34.737Z,24.81
2022-12-20T04:30:01.083Z,24.79
2022-12-20T04:32:27.436Z,24.81
2022-12-20T04:34:53.849Z,24.79
2022-12-20T04:37:20.200Z,24.79
2022-12-20T04:39:46.583Z,24.76
2022-12-20T04:42:12.922Z,24.78
2022-12-20T04:44:39.303Z,24.76
2022-12-20T04:47:05.661Z,24.76
2022-12-20T04:49:32.091Z,24.78
2022-12-20T04:51:58.422Z,24.77
2022-12-20T04:54:24.803Z,24.75
2022-12-20T04:56:51.224Z,24.75
2022-12-20T04:59:17.571Z,24.74
2022-12-20T05:01:43.988Z,24.82
2022-12-20T05:04:10.355Z,24.76
2022-12-20T05:06:36.646Z,24.80
2022-12-20T05:09:03.038Z,24.82
2022-12-20T05:11:29.385Z,24.83
2022-12-20T05:13:55.762Z,24.83
2022-12-20T05:16:22.146Z,24.90
2022-12-20T05:18:49.647Z,24.87
2022-12-20T05:21:14.841Z,24.84
2022-12-20T05:23:41.267Z,24.87
2022-12-20T05:26:07.609Z,24.92
2022-12-20T05:28:33.995Z,24.95
2022-12-20T05:31:00.408Z,24.96
2022-12-20T05:33:33.634Z,24.96
2022-12-20T05:35:53.073Z,25.00
2022-12-20T05:38:19.455Z,25.02
2022-12-20T05:40:45.794Z,24.36
2022-12-20T05:43:12.186Z,24.72
2022-12-20T05:45:38.536Z,25.28
2022-12-20T05:48:04.937Z,25.47
2022-12-20T05:50:31.288Z,25.31
2022-12-20T05:52:57.732Z,25.35
2022-12-20T05:55:24.065Z,25.40
2022-12-20T05:57:50.456Z,25.41
2022-12-20T06:00:16.815Z,25.53
2022-12-20T06:02:43.396Z,25.59
2022-12-20T06:05:09.544Z,25.69
2022-12-20T06:07:35.931Z,25.73
2022-12-20T06:10:02.281Z,25.81
2022-12-20T06:12:28.711Z,25.86
2022-12-20T06:14:55.044Z,25.96
2022-12-20T06:17:21.433Z,26.00
2022-12-20T06:19:47.778Z,26.07
2022-12-20T06:22:14.173Z,26.15
2022-12-20T06:24:45.990Z,26.18
2022-12-20T06:27:06.920Z,26.24
2022-12-20T06:29:33.291Z,26.33
2022-12-20T06:31:59.761Z,26.33
2022-12-20T06:34:26.041Z,26.38
2022-12-20T06:36:52.443Z,26.40
2022-12-20T06:39:18.797Z,26.47
2022-12-20T06:41:45.177Z,26.50
2022-12-20T06:44:11.526Z,26.52
2022-12-20T06:46:38.075Z,26.60
2022-12-20T06:49:04.316Z,26.63
2022-12-20T06:51:30.702Z,26.67
2022-12-20T06:53:57.049Z,26.70
2022-12-20T06:56:23.443Z,26.71
2022-12-20T06:58:49.779Z,26.74
2022-12-20T07:01:16.223Z,26.71
2022-12-20T07:03:42.559Z,26.84
2022-12-20T07:06:08.917Z,26.83
2022-12-20T07:08:35.287Z,26.79
2022-12-20T07:11:01.685Z,26.75
2022-12-20T07:13:28.036Z,26.82
2022-12-20T07:15:54.417Z,26.81
2022-12-20T07:18:20.757Z,26.77
2022-12-20T07:20:47.140Z,26.79
2022-12-20T07:23:13.546Z,26.72
2022-12-20T07:25:39.936Z,26.73
2022-12-20T07:28:06.304Z,26.70
2022-12-20T07:30:32.697Z,26.75
2022-12-20T07:32:59.142Z,26.71
2022-12-20T07:35:25.462Z,26.74
2022-12-20T07:37:51.864Z,26.73
2022-12-20T07:40:18.197Z,26.72
2022-12-20T07:42:48.530Z,26.69
2022-12-20T07:45:11.016Z,26.72
2022-12-20T07:47:37.400Z,26.70
2022-12-20T07:50:03.751Z,26.73
2022-12-20T07:52:30.132Z,26.75
2022-12-20T07:54:56.483Z,26.72
2022-12-20T07:57:22.881Z,26.78
2022-12-20T07:59:49.231Z,26.71
2022-12-20T08:02:15.883Z,26.81
2022-12-20T08:04:42.043Z,26.80
2022-12-20T08:07:08.405Z,26.77
2022-12-20T08:09:34.792Z,26.77
2022-12-20T08:12:01.169Z,26.84
2022-12-20T08:14:27.537Z,26.84
2022-12-20T08:16:54.072Z,26.87
2022-12-20T08:19:20.357Z,26.85
2022-12-20T08:21:46.749Z,26.85
2022-12-20T08:24:13.109Z,26.84
2022-12-20T08:26:39.509Z,26.86
2022-12-20T08:29:05.866Z,26.84
2022-12-20T08:31:32.337Z,26.88
2022-12-20T08:33:58.604Z,26.87
2022-12-20T08:36:24.970Z,26.84
2022-12-20T08:38:51.325Z,26.86
2022-12-20T08:41:17.732Z,26.87
2022-12-20T08:43:44.093Z,26.79
2022-12-20T08:46:10.572Z,26.79
2022-12-20T08:48:36.821Z,26.91
2022-12-20T08:51:03.279Z,26.90
2022-12-20T08:53:29.545Z,26.90
2022-12-20T08:55:55.970Z,26.94
2022-12-20T08:58:22.294Z,26.91
2022-12-20T09:00:48.704Z,27.08
2022-12-20T09:03:15.198Z,27.13
2022-12-20T09:05:41.438Z,27.13
2022-12-20T09:08:07.827Z,27.14
2022-12-20T09:10:34.236Z,27.09
2022-12-20T09:13:00.562Z,27.21
2022-12-20T09:15:27.009Z,27.32
2022-12-20T09:17:53.325Z,27.32
2022-12-20T09:20:19.712Z,27.17
2022-12-20T09:22:46.059Z,27.17
2022-12-20T09:25:12.488Z,27.28
2022-12-20T09:27:38.904Z,27.28
2022-12-20T09:30:05.705Z,27.34
2022-12-20T09:32:33.321Z,27.41
2022-12-20T09:34:59.752Z,27.39
2022-12-20T09:37:26.851Z,27.38
2022-12-20T09:39:54.013Z,27.45
2022-12-20T09:42:20.407Z,27.49
2022-12-20T09:44:46.834Z,27.45
2022-12-20T09:47:13.347Z,27.51
2022-12-20T09:49:39.621Z,27.48
2022-12-20T09:52:06.032Z,27.48
2022-12-20T09:54:32.420Z,27.36
2022-12-20T09:56:58.795Z,27.50
2022-12-20T09:59:25.178Z,27.49
2022-12-20T10:01:51.568Z,27.54
2022-12-20T10:04:18.151Z,27.47
2022-12-20T10:06:44.244Z,27.53
2022-12-20T10:09:10.640Z,27.54
2022-12-20T10:11:43.401Z,27.47
2022-12-20T10:14:03.403Z,27.62
2022-12-20T10:16:29.845Z,27.66
2022-12-20T10:18:56.159Z,27.67
2022-12-20T10:21:22.508Z,27.63
2022-12-20T10:23:48.896Z,27.67
2022-12-20T10:26:15.358Z,27.74
2022-12-20T10:28:41.734Z,27.70
2022-12-20T10:31:08.139Z,27.64
2022-12-20T10:33:34.560Z,27.67
2022-12-20T10:36:00.832Z,27.68
2022-12-20T10:38:27.216Z,27.65
2022-12-20T10:41:20.206Z,27.65
2022-12-20T10:43:19.987Z,27.65
2022-12-20T10:45:46.317Z,27.58
2022-12-20T10:48:12.702Z,27.62
2022-12-20T10:50:39.045Z,27.61
2022-12-20T10:53:05.507Z,27.62
2022-12-20T10:55:31.845Z,27.59
2022-12-20T10:57:58.234Z,27.59
2022-12-20T11:00:24.600Z,27.62
2022-12-20T11:02:51.338Z,27.64
2022-12-20T11:05:17.480Z,27.63
2022-12-20T11:08:08.454Z,27.57
2022-12-20T11:10:10.251Z,27.55
2022-12-20T11:12:36.641Z,27.53
2022-12-20T11:15:03.020Z,27.51
2022-12-20T11:17:29.389Z,27.54
2022-12-20T11:19:55.753Z,27.47
2022-12-20T11:22:22.187Z,27.47
2022-12-20T11:24:48.539Z,27.47
2022-12-20T11:27:15.864Z,27.44
2022-12-20T11:29:41.293Z,27.43
2022-12-20T11:32:07.656Z,27.38
2022-12-20T11:34:33.997Z,27.38
2022-12-20T11:37:00.388Z,27.36
2022-12-20T11:39:26.745Z,27.36
2022-12-20T11:41:53.277Z,27.39
2022-12-20T11:44:27.651Z,27.38
2022-12-20T11:46:46.042Z,27.34
2022-12-20T11:49:12.467Z,27.35
2022-12-20T11:51:38.756Z,27.38
2022-12-20T11:54:05.109Z,27.31
2022-12-20T11:56:31.514Z,27.33
2022-12-20T11:58:57.849Z,27.29
2022-12-20T12:01:24.292Z,27.27
2022-12-20T12:03:50.602Z,27.27
2022-12-20T12:06:17.006Z,27.25
2022-12-20T12:08:43.342Z,27.35
2022-12-20T12:11:25.488Z,27.35
2022-12-20T12:13:36.072Z,27.33
2022-12-20T12:16:02.490Z,27.37
2022-12-20T12:18:28.801Z,27.37
2022-12-20T12:20:55.205Z,27.36
2022-12-20T12:23:21.551Z,27.39
2022-12-20T12:25:47.939Z,27.37
2022-12-20T12:28:14.275Z,27.40
2022-12-20T12:30:40.681Z,27.39
2022-12-20T12:33:07.742Z,27.40
2022-12-20T12:35:33.406Z,27.35
2022-12-20T12:37:59.744Z,27.37
2022-12-20T12:40:26.150Z,27.42
2022-12-20T12:42:52.479Z,27.37
2022-12-20T12:45:18.880Z,27.38
2022-12-20T12:47:45.226Z,27.33
2022-12-20T12:50:11.678Z,27.35
2022-12-20T12:52:38.005Z,27.34
2022-12-20T12:55:04.520Z,27.39
2022-12-20T12:57:30.847Z,27.42
2022-12-20T12:59:57.257Z,27.40
2022-12-20T13:02:23.825Z,27.42
2022-12-20T13:04:50.018Z,27.42
2022-12-20T13:07:16.400Z,27.45
2022-12-20T13:09:42.786Z,27.49
2022-12-20T13:12:11.894Z,27.50
2022-12-20T13:14:35.677Z,27.53
2022-12-20T13:17:12.220Z,27.60
2022-12-20T13:19:28.417Z,27.65
2022-12-20T13:21:54.815Z,27.77
2022-12-20T13:24:21.204Z,27.89
2022-12-20T13:26:47.547Z,27.91
2022-12-20T13:29:13.958Z,27.96
2022-12-20T13:31:40.344Z,28.04
2022-12-20T13:34:06.815Z,28.12
2022-12-20T13:36:33.167Z,28.14
2022-12-20T13:38:59.601Z,28.17
2022-12-20T13:41:31.120Z,28.20
2022-12-20T13:43:52.383Z,28.21
2022-12-20T13:46:18.772Z,28.18
2022-12-20T13:48:45.150Z,28.20
2022-12-20T13:51:11.499Z,28.16
2022-12-20T13:53:37.887Z,28.09
2022-12-20T13:56:04.267Z,28.15
2022-12-20T13:58:30.658Z,28.11
2022-12-20T14:00:57.055Z,28.12
2022-12-20T14:03:23.514Z,28.08
2022-12-20T14:05:50.702Z,28.00
2022-12-20T14:08:16.125Z,27.99
2022-12-20T14:10:42.468Z,27.96
2022-12-20T14:13:08.865Z,27.92
2022-12-20T14:15:35.257Z,27.97
2022-12-20T14:18:01.609Z,27.89
2022-12-20T14:20:27.964Z,27.86
2022-12-20T14:23:04.526Z,27.89
2022-12-20T14:25:23.191Z,27.93
2022-12-20T14:27:49.581Z,27.89
2022-12-20T14:30:15.923Z,27.89
2022-12-20T14:32:42.304Z,27.79
2022-12-20T14:35:08.679Z,27.73
2022-12-20T14:37:35.062Z,27.68
2022-12-20T14:40:01.452Z,27.67
2022-12-20T14:42:27.833Z,27.69
2022-12-20T14:44:54.187Z,27.67
2022-12-20T14:47:20.603Z,27.72
2022-12-20T14:49:46.940Z,27.69
2022-12-20T14:52:13.348Z,27.77
2022-12-20T14:55:07.012Z,27.78
2022-12-20T14:57:06.101Z,27.73
2022-12-20T14:59:32.443Z,27.73
2022-12-20T15:01:58.954Z,27.69
2022-12-20T15:04:25.179Z,27.59
2022-12-20T15:06:51.583Z,27.64
2022-12-20T15:09:17.922Z,27.62
2022-12-20T15:11:44.312Z,27.60
2022-12-20T15:14:10.656Z,27.55
2022-12-20T15:16:37.071Z,27.49
2022-12-20T15:19:03.417Z,27.51
2022-12-20T15:21:29.794Z,27.54
2022-12-20T15:23:56.154Z,27.51
2022-12-20T15:26:22.534Z,27.52
2022-12-20T15:28:48.884Z,27.52
2022-12-20T15:31:15.364Z,27.49
2022-12-20T15:33:41.663Z,27.40
2022-12-20T15:36:08.093Z,27.39
2022-12-20T15:39:03.268Z,27.39
2022-12-20T15:41:00.960Z,27.32
2022-12-20T15:43:27.335Z,27.38
2022-12-20T15:45:53.740Z,27.29
2022-12-20T15:48:20.075Z,27.31
2022-12-20T15:50:46.481Z,27.25
2022-12-20T15:53:12.816Z,27.30
2022-12-20T15:55:40.223Z,27.26
2022-12-20T15:58:05.572Z,27.18
2022-12-20T16:00:31.942Z,27.20
2022-12-20T16:02:58.395Z,27.18
2022-12-20T16:05:24.664Z,27.14
2022-12-20T16:07:51.009Z,27.16
2022-12-20T16:10:18.235Z,27.14
2022-12-20T16:12:44.565Z,27.16
2022-12-20T16:15:10.952Z,27.12
2022-12-20T16:17:37.296Z,27.09
2022-12-20T16:20:03.677Z,27.10
2022-12-20T16:22:30.022Z,27.10
2022-12-20T16:24:56.448Z,27.04
2022-12-20T16:27:22.787Z,27.03
2022-12-20T16:29:49.187Z,26.99
2022-12-20T16:32:15.584Z,27.01
2022-12-20T16:34:41.934Z,26.77
2022-12-20T16:37:08.349Z,26.93
2022-12-20T16:39:34.741Z,26.93
2022-12-20T16:42:01.105Z,26.89
2022-12-20T16:44:27.481Z,26.85
2022-12-20T16:46:53.900Z,26.79
2022-12-20T16:49:21.083Z,26.75
2022-12-20T16:51:46.570Z,26.84
2022-12-20T16:54:21.079Z,26.84
2022-12-20T16:56:39.316Z,26.69
2022-12-20T16:59:19.130Z,26.78
2022-12-20T17:01:32.092Z,26.80
2022-12-20T17:03:58.384Z,26.78
2022-12-20T17:06:24.741Z,26.77
2022-12-20T17:08:54.168Z,26.73
2022-12-20T17:11:20.516Z,26.73
2022-12-20T17:13:47.180Z,26.70
2022-12-20T17:16:13.521Z,26.51
2022-12-20T17:18:39.875Z,26.66
2022-12-20T17:21:06.230Z,25.34
2022-12-20T17:23:32.600Z,24.34
2022-12-20T17:25:58.949Z,24.21
2022-12-20T17:28:25.328Z,24.17
2022-12-20T17:30:51.677Z,24.13
2022-12-20T17:33:18.058Z,24.12
2022-12-20T17:35:44.402Z,24.10
2022-12-20T17:38:10.793Z,24.06
2022-12-20T17:40:37.131Z,24.06
2022-12-20T17:43:03.513Z,24.06
2022-12-20T17:45:30.061Z,24.02
2022-12-20T17:47:56.246Z,24.02
2022-12-20T17:50:22.626Z,23.91
2022-12-20T17:52:49.008Z,23.96
2022-12-20T17:55:15.359Z,23.89
2022-12-20T17:57:41.691Z,23.95
2022-12-20T18:00:08.086Z,23.99
2022-12-20T18:02:34.526Z,23.95
2022-12-20T18:05:00.922Z,23.93
2022-12-20T18:07:27.262Z,23.93
2022-12-20T18:09:53.681Z,23.92
2022-12-20T18:12:20.074Z,23.80
2022-12-20T18:14:46.432Z,23.85
2022-12-20T18:17:12.952Z,23.82
2022-12-20T18:19:39.199Z,23.81
2022-12-20T18:22:05.564Z,23.81
2022-12-20T18:24:31.971Z,23.76
2022-12-20T18:26:58.295Z,23.72
2022-12-20T18:29:24.690Z,23.72
2022-12-20T18:31:51.092Z,23.71
2022-12-20T18:34:17.428Z,23.70
2022-12-20T18:36:43.746Z,23.67
2022-12-20T18:39:10.210Z,23.66
2022-12-20T18:41:36.558Z,23.67
2022-12-20T18:44:02.960Z,23.63
2022-12-20T18:46:29.402Z,23.58
2022-12-20T18:48:55.718Z,23.55
2022-12-20T18:51:22.056Z,23.52
2022-12-20T18:53:48.445Z,23.57
2022-12-20T18:56:14.792Z,23.58
2022-12-20T18:58:41.197Z,23.57
2022-12-20T19:01:07.611Z,23.51
2022-12-20T19:03:33.932Z,23.47
2022-12-20T19:06:00.277Z,23.44
2022-12-20T19:08:27.872Z,23.41
2022-12-20T19:10:53.009Z,23.38
2022-12-20T19:13:19.394Z,23.40
2022-12-20T19:15:45.743Z,23.38
2022-12-20T19:18:12.129Z,23.41
2022-12-20T19:20:38.477Z,23.41
2022-12-20T19:23:04.870Z,23.42
2022-12-20T19:25:31.217Z,23.44
2022-12-20T19:27:57.628Z,23.90
2022-12-20T19:30:23.966Z,24.10
2022-12-20T19:32:50.366Z,23.58
2022-12-20T19:35:52.752Z,23.40
2022-12-20T19:37:43.103Z,23.39
2022-12-20T19:40:09.454Z,23.43
2022-12-20T19:42:35.845Z,23.42
2022-12-20T19:45:03.554Z,23.45
2022-12-20T19:47:28.593Z,23.42
2022-12-20T19:49:54.943Z,23.42
2022-12-20T19:52:28.084Z,23.43
2022-12-20T19:54:47.687Z,23.53
2022-12-20T19:57:15.107Z,23.59
2022-12-20T19:59:40.412Z,23.44
2022-12-20T20:02:06.928Z,23.58
2022-12-20T20:04:33.131Z,23.57
2022-12-20T20:06:59.522Z,23.41
2022-12-20T20:09:25.862Z,23.35
2022-12-20T20:11:52.262Z,23.49
2022-12-20T20:14:18.608Z,23.65
2022-12-20T20:16:45.037Z,23.61
2022-12-20T20:19:11.379Z,23.48
2022-12-20T20:21:37.750Z,23.84
2022-12-20T20:24:04.096Z,23.77
2022-12-20T20:26:30.507Z,23.73
2022-12-20T20:28:56.870Z,23.91
2022-12-20T20:31:23.294Z,24.65
2022-12-20T20:33:49.604Z,24.26
2022-12-20T20:36:15.983Z,24.75
2022-12-20T20:38:42.328Z,24.93
2022-12-20T20:41:08.712Z,24.99
2022-12-20T20:43:35.054Z,25.01
2022-12-20T20:46:01.514Z,25.08
2022-12-20T20:48:27.800Z,25.08
2022-12-20T20:50:54.186Z,25.10
2022-12-20T20:53:20.527Z,25.07
2022-12-20T20:55:46.963Z,25.04
2022-12-20T20:58:13.272Z,25.02
2022-12-20T21:00:39.662Z,25.06
2022-12-20T21:03:06.289Z,25.11
2022-12-20T21:06:32.386Z,25.04
2022-12-20T21:07:58.753Z,25.08
2022-12-20T21:10:25.304Z,25.04
2022-12-20T21:12:51.528Z,25.04
2022-12-20T21:15:22.993Z,25.02
2022-12-20T21:17:44.249Z,25.03
2022-12-20T21:20:10.644Z,24.95
2022-12-20T21:22:36.998Z,24.91
2022-12-20T21:25:03.382Z,24.90
2022-12-20T21:27:29.718Z,24.96
2022-12-20T21:29:56.168Z,24.89
2022-12-20T21:32:22.516Z,24.98
2022-12-20T21:34:48.902Z,24.91
2022-12-20T21:37:15.248Z,24.93
2022-12-20T21:39:41.639Z,24.90
2022-12-20T21:42:07.990Z,24.89
2022-12-20T21:44:34.376Z,24.83
2022-12-20T21:47:00.804Z,24.85
2022-12-20T21:49:27.097Z,24.85
2022-12-20T21:51:53.438Z,24.91
2022-12-20T21:54:19.833Z,24.78
2022-12-20T21:56:46.181Z,24.75
2022-12-20T21:59:12.639Z,23.70
2022-12-20T22:01:39.134Z,23.91
2022-12-20T22:04:05.385Z,24.48
2022-12-20T22:06:31.752Z,24.60
2022-12-20T22:08:58.116Z,24.62
2022-12-20T22:11:24.509Z,24.63
2022-12-20T22:13:50.900Z,24.64
2022-12-20T22:16:17.253Z,24.63
2022-12-20T22:18:43.615Z,24.62
2022-12-20T22:21:09.979Z,24.62
2022-12-20T22:23:36.348Z,24.61
2022-12-20T22:26:02.707Z,24.59
2022-12-20T22:28:29.093Z,24.62
2022-12-20T22:30:55.496Z,23.63
2022-12-20T22:33:21.878Z,24.25
2022-12-20T22:35:48.223Z,24.43
2022-12-20T22:38:14.618Z,23.93
2022-12-20T22:40:40.972Z,24.36
2022-12-20T22:43:07.382Z,24.48
2022-12-20T22:45:33.741Z,24.46
2022-12-20T22:48:00.089Z,24.52
2022-12-20T22:50:26.431Z,24.52
2022-12-20T22:52:52.777Z,24.51
2022-12-20T22:55:19.125Z,24.50
2022-12-20T22:57:45.473Z,24.48
2022-12-20T23:00:11.855Z,24.49
2022-12-20T23:02:38.304Z,24.45
2022-12-20T23:05:04.552Z,24.46
2022-12-20T23:07:30.902Z,24.51
2022-12-20T23:09:57.288Z,23.60
2022-12-20T23:12:23.596Z,23.28
2022-12-20T23:14:49.929Z,23.98
2022-12-20T23:17:16.339Z,24.28
2022-12-20T23:19:42.676Z,24.33
2022-12-20T23:22:09.030Z,24.34
2022-12-20T23:24:35.386Z,24.42
2022-12-20T23:27:01.770Z,24.39
2022-12-20T23:29:28.116Z,24.41
2022-12-20T23:31:54.508Z,24.40
2022-12-20T23:34:20.804Z,24.37
2022-12-20T23:36:47.157Z,24.39
2022-12-20T23:39:13.492Z,24.40
2022-12-20T23:41:39.842Z,24.40
2022-12-20T23:44:06.197Z,24.38
2022-12-20T23:46:32.570Z,24.37
2022-12-20T23:48:58.889Z,24.38
2022-12-20T23:51:25.255Z,24.34
2022-12-20T23:53:51.579Z,24.39
2022-12-20T23:56:17.931Z,24.34
2022-12-20T23:58:44.278Z,24.36
